createdAt,value
2019-02-17T00:01:22.323Z,39.37
2019-02-17T00:03:35.554Z,37.57
2019-02-17T00:05:57.281Z,38.43
2019-02-17T00:08:20.162Z,39.30
2019-02-17T00:10:35.062Z,38.40
2019-02-17T00:12:59.496Z,37.70
2019-02-17T00:17:53.241Z,39.37
2019-02-17T00:20:08.109Z,40.50
2019-02-17T00:22:30.806Z,43.03
2019-02-17T00:25:01.172Z,43.50
2019-02-17T00:26:59.185Z,45.93
2019-02-17T00:29:09.619Z,42.50
2019-02-17T00:31:37.416Z,41.70
2019-02-17T00:33:59.712Z,42.37
2019-02-17T00:36:14.478Z,39.57
2019-02-17T00:38:41.248Z,41.40
2019-02-17T00:41:04.409Z,39.93
2019-02-17T00:43:13.089Z,41.40
2019-02-17T00:45:19.984Z,39.73
2019-02-17T00:47:27.019Z,39.80
2019-02-17T00:49:43.354Z,38.47
2019-02-17T00:52:12.897Z,37.83
2019-02-17T00:54:23.906Z,42.67
2019-02-17T00:56:31.263Z,40.60
2019-02-17T00:58:41.605Z,40.80
2019-02-17T01:00:50.790Z,38.60
2019-02-17T01:03:07.470Z,40.23
2019-02-17T01:05:25.054Z,39.80
2019-02-17T01:07:35.954Z,41.17
2019-02-17T01:09:46.188Z,40.17
2019-02-17T01:11:54.396Z,39.93
2019-02-17T01:14:03.271Z,41.97
2019-02-17T01:16:16.091Z,40.00
2019-02-17T01:18:24.765Z,39.97
2019-02-17T01:20:37.030Z,38.10
2019-02-17T01:22:43.708Z,40.57
2019-02-17T01:24:54.933Z,39.40
2019-02-17T01:27:05.629Z,37.97
2019-02-17T01:29:28.379Z,40.60
2019-02-17T01:31:48.682Z,39.07
2019-02-17T01:33:58.211Z,40.90
2019-02-17T01:36:08.705Z,41.23
2019-02-17T01:38:26.055Z,39.47
2019-02-17T01:40:38.284Z,43.73
2019-02-17T01:42:52.589Z,42.57
2019-02-17T01:45:04.633Z,44.13
2019-02-17T01:47:16.324Z,44.10
2019-02-17T01:49:40.269Z,43.80
2019-02-17T01:51:52.254Z,43.53
2019-02-17T01:54:06.099Z,42.37
2019-02-17T01:56:24.256Z,42.37
2019-02-17T01:58:41.133Z,42.73
2019-02-17T02:00:57.313Z,43.57
2019-02-17T02:03:05.819Z,41.33
2019-02-17T02:05:15.573Z,44.37
2019-02-17T02:07:34.284Z,40.90
2019-02-17T02:09:59.658Z,44.50
2019-02-17T02:12:10.583Z,42.83
2019-02-17T02:14:25.424Z,43.03
2019-02-17T02:16:51.745Z,42.30
2019-02-17T02:19:22.400Z,39.90
2019-02-17T02:21:35.171Z,38.03
2019-02-17T02:23:56.004Z,37.57
2019-02-17T02:26:07.015Z,36.90
2019-02-17T02:28:26.121Z,38.50
2019-02-17T02:30:47.709Z,37.00
2019-02-17T02:33:03.304Z,38.30
2019-02-17T02:35:22.879Z,33.90
2019-02-17T02:37:36.587Z,33.37
2019-02-17T02:40:14.418Z,33.87
2019-02-17T02:42:29.504Z,35.93
2019-02-17T02:44:38.657Z,35.73
2019-02-17T02:46:52.294Z,32.27
2019-02-17T02:49:03.781Z,35.40
2019-02-17T02:51:13.570Z,36.20
2019-02-17T02:53:26.432Z,35.07
2019-02-17T02:55:36.013Z,37.07
2019-02-17T02:57:45.096Z,39.60
2019-02-17T02:59:55.408Z,36.10
2019-02-17T03:02:02.715Z,37.80
2019-02-17T03:04:18.089Z,36.97
2019-02-17T03:06:43.657Z,37.30
2019-02-17T03:08:53.700Z,37.63
2019-02-17T03:10:59.339Z,38.03
2019-02-17T03:13:09.794Z,39.13
2019-02-17T03:15:17.212Z,38.80
2019-02-17T03:17:30.664Z,39.33
2019-02-17T03:19:40.014Z,38.17
2019-02-17T03:21:57.697Z,36.30
2019-02-17T03:24:05.877Z,37.87
2019-02-17T03:26:15.764Z,37.03
2019-02-17T03:28:31.494Z,35.30
2019-02-17T03:30:55.471Z,37.03
2019-02-17T03:33:15.424Z,37.93
2019-02-17T03:35:29.748Z,34.57
2019-02-17T03:37:42.911Z,37.87
2019-02-17T03:39:56.494Z,35.27
2019-02-17T03:42:05.198Z,33.13
2019-02-17T03:44:21.509Z,37.97
2019-02-17T03:46:41.606Z,36.13
2019-02-17T03:48:58.259Z,36.17
2019-02-17T03:51:12.708Z,34.97
2019-02-17T03:53:29.261Z,34.37
2019-02-17T03:55:39.068Z,36.77
2019-02-17T03:58:15.733Z,34.33
2019-02-17T04:00:22.175Z,34.37
2019-02-17T04:05:50.773Z,40.87
2019-02-17T04:11:33.472Z,36.53
2019-02-17T04:13:36.571Z,40.10
2019-02-17T04:15:55.209Z,39.70
2019-02-17T04:18:04.541Z,37.50
2019-02-17T04:20:15.881Z,37.53
2019-02-17T04:22:36.730Z,36.10
2019-02-17T04:24:47.757Z,37.50
2019-02-17T04:26:58.270Z,39.70
2019-02-17T04:29:10.246Z,37.23
2019-02-17T04:31:25.951Z,37.30
2019-02-17T04:33:33.651Z,37.40
2019-02-17T04:35:51.393Z,39.10
2019-02-17T04:38:03.604Z,37.73
2019-02-17T04:40:13.488Z,35.73
2019-02-17T04:42:23.013Z,37.73
2019-02-17T04:44:30.816Z,37.53
2019-02-17T04:46:42.900Z,36.20
2019-02-17T04:49:05.155Z,39.70
2019-02-17T04:51:13.116Z,38.97
2019-02-17T04:53:37.797Z,37.90
2019-02-17T04:55:43.958Z,36.83
2019-02-17T04:57:59.661Z,36.23
2019-02-17T05:00:06.143Z,36.70
2019-02-17T05:02:19.138Z,35.50
2019-02-17T05:04:35.571Z,39.20
2019-02-17T05:06:55.526Z,37.57
2019-02-17T05:09:08.237Z,37.00
2019-02-17T05:11:25.904Z,36.50
2019-02-17T05:13:41.835Z,38.07
2019-02-17T05:15:52.855Z,40.30
2019-02-17T05:18:07.468Z,36.60
2019-02-17T05:20:18.826Z,38.00
2019-02-17T05:22:32.243Z,35.63
2019-02-17T05:24:37.434Z,36.73
2019-02-17T05:26:41.725Z,37.10
2019-02-17T05:28:47.574Z,36.80
2019-02-17T05:30:53.173Z,37.03
2019-02-17T05:32:57.605Z,37.23
2019-02-17T05:35:01.800Z,37.60
2019-02-17T05:37:07.202Z,37.73
2019-02-17T05:39:16.929Z,37.73
2019-02-17T05:41:21.091Z,35.50
2019-02-17T05:43:28.169Z,37.23
2019-02-17T05:45:32.421Z,37.00
2019-02-17T05:47:36.572Z,37.80
2019-02-17T05:49:44.281Z,37.50
2019-02-17T05:51:48.632Z,38.80
2019-02-17T05:53:52.851Z,37.47
2019-02-17T05:55:57.084Z,38.10
2019-02-17T05:58:01.100Z,39.00
2019-02-17T06:00:09.093Z,38.13
2019-02-17T06:02:13.534Z,38.50
2019-02-17T06:04:22.031Z,39.87
2019-02-17T06:06:30.511Z,37.30
2019-02-17T06:08:37.680Z,36.80
2019-02-17T06:10:41.898Z,40.00
2019-02-17T06:12:46.139Z,39.07
2019-02-17T06:14:50.616Z,37.50
2019-02-17T06:16:54.882Z,41.67
2019-02-17T06:18:59.088Z,41.50
2019-02-17T06:21:04.911Z,41.20
2019-02-17T06:23:11.800Z,40.03
2019-02-17T06:25:16.140Z,40.97
2019-02-17T06:27:20.259Z,40.83
2019-02-17T06:29:26.181Z,39.27
2019-02-17T06:31:33.028Z,40.87
2019-02-17T06:33:37.489Z,40.30
2019-02-17T06:35:41.554Z,40.97
2019-02-17T06:37:47.117Z,43.53
2019-02-17T06:39:54.063Z,41.60
2019-02-17T06:41:58.322Z,40.17
2019-02-17T06:44:02.434Z,39.60
2019-02-17T06:46:11.271Z,39.87
2019-02-17T06:48:15.187Z,42.77
2019-02-17T06:50:19.132Z,41.27
2019-02-17T06:52:26.222Z,41.00
2019-02-17T06:54:33.290Z,39.87
2019-02-17T06:56:58.409Z,40.37
2019-02-17T06:59:02.383Z,39.37
2019-02-17T07:01:06.843Z,40.20
2019-02-17T07:03:14.506Z,37.27
2019-02-17T07:05:32.917Z,38.63
2019-02-17T07:07:37.125Z,38.30
2019-02-17T07:09:42.721Z,41.20
2019-02-17T07:11:46.686Z,44.30
2019-02-17T07:13:50.673Z,38.20
2019-02-17T07:15:56.217Z,39.70
2019-02-17T07:18:00.285Z,37.20
2019-02-17T07:20:06.103Z,38.70
2019-02-17T07:22:10.700Z,37.80
2019-02-17T07:24:15.480Z,33.90
2019-02-17T07:26:20.199Z,35.90
2019-02-17T07:28:24.172Z,32.40
2019-02-17T07:30:28.504Z,33.50
2019-02-17T07:32:35.521Z,33.67
2019-02-17T07:34:40.644Z,30.60
2019-02-17T07:36:46.996Z,32.03
2019-02-17T07:38:56.165Z,31.40
2019-02-17T07:41:00.318Z,32.37
2019-02-17T07:43:20.125Z,28.70
2019-02-17T07:45:49.408Z,31.40
2019-02-17T07:48:16.446Z,31.13
2019-02-17T07:50:47.181Z,28.70
2019-02-17T07:53:04.009Z,28.23
2019-02-17T07:55:12.603Z,28.17
2019-02-17T07:57:27.954Z,28.63
2019-02-17T07:59:33.264Z,24.80
2019-02-17T08:04:42.543Z,25.00
2019-02-17T08:11:03.451Z,26.90
2019-02-17T08:13:02.760Z,25.77
2019-02-17T08:15:18.228Z,25.80
2019-02-17T08:17:34.231Z,25.10
2019-02-17T08:19:51.350Z,25.40
2019-02-17T08:22:06.661Z,24.77
2019-02-17T08:24:49.524Z,24.67
2019-02-17T08:27:35.010Z,25.90
2019-02-17T08:30:09.880Z,23.47
2019-02-17T08:32:45.445Z,23.70
2019-02-17T08:35:38.405Z,23.20
2019-02-17T08:37:54.792Z,23.63
2019-02-17T08:40:13.312Z,24.20
2019-02-17T08:42:38.008Z,23.40
2019-02-17T08:44:53.153Z,24.10
2019-02-17T08:47:13.468Z,22.80
2019-02-17T08:49:28.623Z,23.70
2019-02-17T08:51:34.723Z,22.43
2019-02-17T08:53:42.077Z,23.93
2019-02-17T08:55:48.490Z,20.10
2019-02-17T08:57:55.667Z,20.50
2019-02-17T09:00:06.222Z,19.80
2019-02-17T09:02:10.517Z,19.50
2019-02-17T09:04:14.463Z,21.63
2019-02-17T09:06:18.386Z,19.90
2019-02-17T09:08:22.197Z,20.67
2019-02-17T09:10:26.010Z,21.37
2019-02-17T09:12:37.463Z,19.03
2019-02-17T09:14:52.555Z,18.33
2019-02-17T09:16:56.895Z,18.40
2019-02-17T09:19:00.788Z,17.63
2019-02-17T09:21:04.898Z,21.33
2019-02-17T09:23:08.779Z,16.90
2019-02-17T09:25:12.767Z,18.07
2019-02-17T09:27:27.385Z,16.80
2019-02-17T09:29:31.486Z,17.50
2019-02-17T09:31:35.473Z,18.13
2019-02-17T09:33:39.540Z,18.93
2019-02-17T09:35:43.988Z,16.83
2019-02-17T09:41:04.785Z,17.43
2019-02-17T09:43:11.291Z,16.30
2019-02-17T09:45:53.230Z,17.77
2019-02-17T09:48:31.989Z,17.97
2019-02-17T09:51:09.764Z,17.37
2019-02-17T09:53:14.254Z,17.27
2019-02-17T09:55:28.441Z,17.20
2019-02-17T09:58:26.809Z,16.93
2019-02-17T10:01:43.101Z,17.47
2019-02-17T10:03:53.619Z,16.57
2019-02-17T12:02:28.765Z,17.90
2019-02-17T12:08:35.686Z,16.30
2019-02-17T12:13:13.350Z,17.33
2019-02-17T12:14:58.493Z,18.87
2019-02-17T12:36:45.937Z,18.23
2019-02-17T12:39:45.109Z,19.30
2019-02-17T12:42:16.792Z,16.87
2019-02-17T12:45:11.159Z,17.70
2019-02-17T12:48:24.744Z,17.93
2019-02-17T12:50:44.028Z,17.90
2019-02-17T12:59:45.906Z,17.17
2019-02-17T13:01:58.804Z,18.00
2019-02-17T13:04:47.666Z,17.13
2019-02-17T13:07:26.243Z,16.10
2019-02-17T13:09:53.147Z,18.20
2019-02-17T13:12:25.636Z,18.23
2019-02-17T13:14:44.769Z,16.60
2019-02-17T13:17:09.864Z,18.07
2019-02-17T13:19:27.150Z,16.57
2019-02-17T13:21:50.607Z,15.93
2019-02-17T13:27:33.956Z,15.80
2019-02-17T13:30:41.551Z,18.10
2019-02-17T13:36:00.909Z,16.37
2019-02-17T13:44:58.654Z,17.60
2019-02-17T14:02:05.193Z,15.50
2019-02-17T14:11:29.667Z,14.20
2019-02-17T14:14:49.929Z,15.47
2019-02-17T14:27:58.086Z,14.40
2019-02-17T14:37:39.029Z,14.57
2019-02-17T14:49:40.493Z,15.97
2019-02-17T14:51:50.713Z,16.60
2019-02-17T14:54:12.093Z,16.73
2019-02-17T14:57:02.346Z,16.73
2019-02-17T15:00:18.330Z,14.40
2019-02-17T15:03:06.512Z,14.63
2019-02-17T15:06:22.912Z,15.73
2019-02-17T15:08:37.488Z,14.87
2019-02-17T15:11:23.007Z,11.43
2019-02-17T15:14:29.559Z,11.73
2019-02-17T15:17:10.750Z,12.30
2019-02-17T15:19:39.463Z,10.93
2019-02-17T15:25:53.204Z,10.47
2019-02-17T15:28:02.330Z,11.57
2019-02-17T15:30:44.887Z,12.00
2019-02-17T15:34:18.347Z,13.10
2019-02-17T15:37:03.017Z,14.17
2019-02-17T15:40:27.658Z,13.87
2019-02-17T15:49:18.265Z,12.97
2019-02-17T16:08:09.365Z,13.50
2019-02-17T16:20:09.193Z,14.17
2019-02-17T16:29:52.834Z,13.03
2019-02-17T16:32:59.088Z,13.30
2019-02-17T16:38:19.130Z,12.77
2019-02-17T16:41:43.750Z,12.23
2019-02-17T16:43:40.917Z,11.47
2019-02-17T16:45:48.724Z,11.80
2019-02-17T16:48:32.085Z,13.13
2019-02-17T16:50:38.371Z,13.60
2019-02-17T16:52:47.499Z,11.73
2019-02-17T16:54:52.395Z,11.83
2019-02-17T16:57:06.769Z,11.97
2019-02-17T16:59:16.286Z,11.90
2019-02-17T17:01:21.142Z,13.13
2019-02-17T17:03:29.773Z,13.17
2019-02-17T17:05:34.107Z,11.90
2019-02-17T17:07:54.924Z,11.67
2019-02-17T17:10:39.602Z,12.20
2019-02-17T17:12:49.729Z,12.23
2019-02-17T17:14:53.768Z,13.73
2019-02-17T17:17:00.537Z,13.13
2019-02-17T17:19:04.863Z,11.50
2019-02-17T17:21:08.876Z,13.10
2019-02-17T17:23:12.772Z,11.80
2019-02-17T17:25:16.720Z,13.10
2019-02-17T17:27:20.746Z,14.43
2019-02-17T17:29:24.719Z,12.80
2019-02-17T17:31:28.568Z,13.40
2019-02-17T17:33:33.225Z,15.93
2019-02-17T17:35:38.399Z,15.00
2019-02-17T17:37:42.875Z,14.80
2019-02-17T17:39:46.859Z,15.07
2019-02-17T17:41:50.715Z,14.23
2019-02-17T17:43:54.523Z,14.80
2019-02-17T17:45:58.315Z,13.87
2019-02-17T17:48:02.135Z,14.30
2019-02-17T17:50:07.142Z,13.47
2019-02-17T17:52:11.236Z,14.53
2019-02-17T17:54:15.371Z,13.90
2019-02-17T17:56:19.439Z,15.83
2019-02-17T17:58:26.399Z,14.30
2019-02-17T18:00:31.500Z,12.60
2019-02-17T18:02:35.370Z,13.23
2019-02-17T18:04:39.302Z,15.13
2019-02-17T18:06:52.439Z,13.90
2019-02-17T18:08:59.010Z,14.10
2019-02-17T18:11:21.592Z,13.43
2019-02-17T18:13:57.078Z,13.47
2019-02-17T18:19:48.105Z,13.47
2019-02-17T18:22:06.920Z,14.07
2019-02-17T18:25:06.899Z,12.60
2019-02-17T18:27:27.525Z,13.23
2019-02-17T18:32:59.805Z,14.40
2019-02-17T18:35:50.059Z,14.23
2019-02-17T18:38:35.478Z,14.53
2019-02-17T18:41:15.012Z,15.90
2019-02-17T18:50:19.107Z,14.20
2019-02-17T18:52:41.993Z,14.27
2019-02-17T19:01:30.259Z,15.27
2019-02-17T19:04:42.862Z,16.40
2019-02-17T19:07:05.910Z,16.60
2019-02-17T19:09:36.130Z,16.97
2019-02-17T19:11:47.639Z,16.17
2019-02-17T19:29:40.659Z,14.80
2019-02-17T19:30:35.290Z,13.80
2019-02-17T19:32:58.583Z,13.40
2019-02-17T19:35:29.177Z,13.50
2019-02-17T19:38:13.143Z,11.90
2019-02-17T19:40:51.556Z,11.90
2019-02-17T19:43:33.676Z,12.20
2019-02-17T19:45:56.570Z,12.10
2019-02-17T19:48:34.978Z,13.40
2019-02-17T19:51:24.590Z,12.30
2019-02-17T19:53:56.298Z,10.93
2019-02-17T19:57:06.370Z,12.53
2019-02-17T20:02:46.513Z,12.13
2019-02-17T20:11:46.112Z,13.30
2019-02-17T20:24:49.893Z,15.47
2019-02-17T20:27:53.537Z,13.67
2019-02-17T20:45:46.734Z,15.03
2019-02-17T20:48:15.740Z,16.40
2019-02-17T21:01:34.355Z,15.97
2019-02-17T21:08:10.239Z,15.00
2019-02-17T21:17:22.402Z,12.43
2019-02-17T21:20:14.775Z,11.47
2019-02-17T21:23:12.447Z,13.50
2019-02-17T21:26:00.049Z,11.17
2019-02-17T21:28:32.721Z,10.63
2019-02-17T21:34:09.611Z,11.00
2019-02-17T21:40:30.967Z,11.20
2019-02-17T21:50:15.475Z,10.70
2019-02-17T21:50:35.946Z,11.40
2019-02-17T22:00:06.847Z,10.57
2019-02-17T22:00:14.955Z,10.30
2019-02-17T22:05:29.272Z,9.73
2019-02-17T22:19:30.468Z,10.53
2019-02-17T22:36:54.748Z,11.87
2019-02-17T22:44:53.548Z,12.00
2019-02-17T22:59:43.811Z,12.43
2019-02-17T23:02:06.404Z,11.43
2019-02-17T23:18:37.657Z,11.43
2019-02-17T23:21:37.282Z,9.30
2019-02-17T23:24:43.415Z,9.60
